sensor_id;sensor_type;location;lat;lon;timestamp;pressure;altitude;pressure_sealevel;temperature;humidity
61408;BME280;47274;43.054;25.146;2023-07-29T00:00:01;95421.06;;;17.03;57.10
61408;BME280;47274;43.054;25.146;2023-07-29T00:02:40;95411.50;;;17.03;57.29
61408;BME280;47274;43.054;25.146;2023-07-29T00:05:06;95406.75;;;17.07;57.22
61408;BME280;47274;43.054;25.146;2023-07-29T00:07:32;95366.66;;;16.81;57.84
61408;BME280;47274;43.054;25.146;2023-07-29T00:09:58;95394.75;;;16.78;58.32
61408;BME280;47274;43.054;25.146;2023-07-29T00:12:24;95408.81;;;16.69;59.10
61408;BME280;47274;43.054;25.146;2023-07-29T00:14:50;95337.97;;;15.91;60.58
61408;BME280;47274;43.054;25.146;2023-07-29T00:17:15;95405.72;;;16.37;60.85
61408;BME280;47274;43.054;25.146;2023-07-29T00:19:41;95380.41;;;16.32;60.23
61408;BME280;47274;43.054;25.146;2023-07-29T00:22:07;95405.75;;;16.80;58.90
61408;BME280;47274;43.054;25.146;2023-07-29T00:24:34;95386.00;;;16.79;58.89
61408;BME280;47274;43.054;25.146;2023-07-29T00:26:59;95391.59;;;16.61;60.72
61408;BME280;47274;43.054;25.146;2023-07-29T00:29:26;95402.59;;;16.42;61.39
61408;BME280;47274;43.054;25.146;2023-07-29T00:31:52;95385.34;;;16.49;60.64
61408;BME280;47274;43.054;25.146;2023-07-29T00:34:19;95361.16;;;16.42;60.58
61408;BME280;47274;43.054;25.146;2023-07-29T00:36:45;95391.75;;;16.53;61.63
61408;BME280;47274;43.054;25.146;2023-07-29T00:39:11;95386.66;;;16.23;62.62
61408;BME280;47274;43.054;25.146;2023-07-29T00:41:37;95380.94;;;16.06;63.09
61408;BME280;47274;43.054;25.146;2023-07-29T00:44:04;95386.31;;;16.05;63.60
61408;BME280;47274;43.054;25.146;2023-07-29T00:46:29;95372.53;;;15.83;64.18
61408;BME280;47274;43.054;25.146;2023-07-29T00:48:58;95391.78;;;15.95;63.22
61408;BME280;47274;43.054;25.146;2023-07-29T00:51:24;95372.06;;;15.79;63.97
61408;BME280;47274;43.054;25.146;2023-07-29T00:53:50;95383.75;;;15.90;63.50
61408;BME280;47274;43.054;25.146;2023-07-29T00:56:16;95372.50;;;15.98;62.76
61408;BME280;47274;43.054;25.146;2023-07-29T00:58:42;95384.84;;;16.17;61.89
61408;BME280;47274;43.054;25.146;2023-07-29T01:01:08;95377.06;;;16.17;61.41
61408;BME280;47274;43.054;25.146;2023-07-29T01:03:36;95385.06;;;16.44;60.14
61408;BME280;47274;43.054;25.146;2023-07-29T01:06:12;95387.25;;;16.62;59.53
61408;BME280;47274;43.054;25.146;2023-07-29T01:08:58;95376.91;;;16.68;58.97
61408;BME280;47274;43.054;25.146;2023-07-29T01:14:38;95381.78;;;16.78;58.80
61408;BME280;47274;43.054;25.146;2023-07-29T01:17:13;95372.72;;;16.67;59.05
61408;BME280;47274;43.054;25.146;2023-07-29T01:19:54;95302.09;;;16.09;59.72
61408;BME280;47274;43.054;25.146;2023-07-29T01:22:30;95397.81;;;16.67;59.84
61408;BME280;47274;43.054;25.146;2023-07-29T01:24:59;95353.41;;;16.42;59.34
61408;BME280;47274;43.054;25.146;2023-07-29T01:27:26;95394.16;;;16.76;58.91
61408;BME280;47274;43.054;25.146;2023-07-29T01:29:52;95409.81;;;16.89;58.62
61408;BME280;47274;43.054;25.146;2023-07-29T01:35:07;95395.44;;;16.87;58.19
61408;BME280;47274;43.054;25.146;2023-07-29T01:37:37;95393.88;;;16.92;57.95
61408;BME280;47274;43.054;25.146;2023-07-29T01:40:05;95387.28;;;16.90;57.58
61408;BME280;47274;43.054;25.146;2023-07-29T01:42:38;95398.59;;;17.10;57.27
61408;BME280;47274;43.054;25.146;2023-07-29T01:45:06;95368.94;;;16.91;56.53
61408;BME280;47274;43.054;25.146;2023-07-29T01:47:32;95344.63;;;16.71;56.78
61408;BME280;47274;43.054;25.146;2023-07-29T01:50:01;95346.97;;;16.59;56.95
61408;BME280;47274;43.054;25.146;2023-07-29T01:52:30;95396.47;;;16.92;56.87
61408;BME280;47274;43.054;25.146;2023-07-29T01:54:55;95388.81;;;16.84;57.15
61408;BME280;47274;43.054;25.146;2023-07-29T01:57:21;95368.59;;;16.73;56.90
61408;BME280;47274;43.054;25.146;2023-07-29T01:59:47;95395.31;;;17.01;56.50
61408;BME280;47274;43.054;25.146;2023-07-29T02:02:23;95392.72;;;17.01;56.71
61408;BME280;47274;43.054;25.146;2023-07-29T02:04:48;95401.28;;;16.74;57.95
61408;BME280;47274;43.054;25.146;2023-07-29T02:07:20;95396.06;;;16.46;59.07
61408;BME280;47274;43.054;25.146;2023-07-29T02:09:45;95392.63;;;16.17;60.61
61408;BME280;47274;43.054;25.146;2023-07-29T02:12:11;95405.06;;;16.07;61.67
61408;BME280;47274;43.054;25.146;2023-07-29T02:14:37;95405.56;;;16.02;61.32
61408;BME280;47274;43.054;25.146;2023-07-29T02:17:03;95387.72;;;16.07;60.77
61408;BME280;47274;43.054;25.146;2023-07-29T02:19:31;95398.16;;;16.35;59.39
61408;BME280;47274;43.054;25.146;2023-07-29T02:22:03;95404.44;;;16.69;58.02
61408;BME280;47274;43.054;25.146;2023-07-29T02:24:29;95399.72;;;16.58;58.31
61408;BME280;47274;43.054;25.146;2023-07-29T02:26:55;95387.53;;;16.30;59.33
61408;BME280;47274;43.054;25.146;2023-07-29T02:29:21;95415.06;;;16.31;59.91
61408;BME280;47274;43.054;25.146;2023-07-29T02:31:47;95410.53;;;16.19;60.22
61408;BME280;47274;43.054;25.146;2023-07-29T02:34:15;95415.63;;;15.91;61.34
61408;BME280;47274;43.054;25.146;2023-07-29T02:36:41;95425.09;;;15.83;62.58
61408;BME280;47274;43.054;25.146;2023-07-29T02:39:07;95379.00;;;15.43;62.93
61408;BME280;47274;43.054;25.146;2023-07-29T02:41:34;95415.38;;;15.56;63.39
61408;BME280;47274;43.054;25.146;2023-07-29T02:44:01;95427.47;;;15.55;63.32
61408;BME280;47274;43.054;25.146;2023-07-29T02:46:27;95404.84;;;15.57;62.60
61408;BME280;47274;43.054;25.146;2023-07-29T02:48:53;95411.28;;;15.76;62.42
61408;BME280;47274;43.054;25.146;2023-07-29T02:51:21;95417.25;;;15.77;62.70
61408;BME280;47274;43.054;25.146;2023-07-29T02:53:47;95415.94;;;15.66;63.06
61408;BME280;47274;43.054;25.146;2023-07-29T02:56:13;95389.59;;;15.62;62.33
61408;BME280;47274;43.054;25.146;2023-07-29T02:58:39;95421.50;;;15.84;61.74
61408;BME280;47274;43.054;25.146;2023-07-29T03:01:06;95420.66;;;15.99;60.68
61408;BME280;47274;43.054;25.146;2023-07-29T03:03:33;95394.31;;;16.10;59.21
61408;BME280;47274;43.054;25.146;2023-07-29T03:06:01;95399.44;;;16.25;58.42
61408;BME280;47274;43.054;25.146;2023-07-29T03:08:29;95420.66;;;16.35;58.68
61408;BME280;47274;43.054;25.146;2023-07-29T03:10:56;95430.03;;;16.36;58.94
61408;BME280;47274;43.054;25.146;2023-07-29T03:13:22;95421.59;;;16.27;59.21
61408;BME280;47274;43.054;25.146;2023-07-29T03:15:48;95430.41;;;16.33;59.21
61408;BME280;47274;43.054;25.146;2023-07-29T03:18:15;95411.97;;;16.21;59.17
61408;BME280;47274;43.054;25.146;2023-07-29T03:20:41;95409.09;;;16.16;59.33
61408;BME280;47274;43.054;25.146;2023-07-29T03:23:07;95393.78;;;16.00;59.54
61408;BME280;47274;43.054;25.146;2023-07-29T03:25:33;95408.06;;;16.10;59.69
61408;BME280;47274;43.054;25.146;2023-07-29T03:28:00;95374.38;;;15.89;59.91
61408;BME280;47274;43.054;25.146;2023-07-29T03:30:26;95425.06;;;16.20;59.55
61408;BME280;47274;43.054;25.146;2023-07-29T03:32:52;95422.81;;;16.31;59.03
61408;BME280;47274;43.054;25.146;2023-07-29T03:35:18;95375.03;;;16.13;58.30
61408;BME280;47274;43.054;25.146;2023-07-29T03:37:44;95435.53;;;16.69;57.80
61408;BME280;47274;43.054;25.146;2023-07-29T03:40:11;95431.22;;;16.76;57.59
61408;BME280;47274;43.054;25.146;2023-07-29T03:42:37;95402.81;;;16.68;56.59
61408;BME280;47274;43.054;25.146;2023-07-29T03:45:06;95426.59;;;16.93;55.55
61408;BME280;47274;43.054;25.146;2023-07-29T03:47:35;95444.47;;;17.10;55.14
61408;BME280;47274;43.054;25.146;2023-07-29T03:50:03;95423.78;;;16.95;55.59
61408;BME280;47274;43.054;25.146;2023-07-29T03:52:30;95419.75;;;16.86;55.45
61408;BME280;47274;43.054;25.146;2023-07-29T03:54:56;95435.72;;;16.89;56.13
61408;BME280;47274;43.054;25.146;2023-07-29T03:57:22;95420.72;;;16.63;56.97
61408;BME280;47274;43.054;25.146;2023-07-29T04:00:08;95453.03;;;16.67;58.41
61408;BME280;47274;43.054;25.146;2023-07-29T04:02:41;95455.41;;;16.62;59.16
61408;BME280;47274;43.054;25.146;2023-07-29T04:05:08;95424.22;;;16.34;60.12
61408;BME280;47274;43.054;25.146;2023-07-29T04:07:35;95453.91;;;16.53;60.62
61408;BME280;47274;43.054;25.146;2023-07-29T04:10:02;95454.91;;;16.52;60.02
61408;BME280;47274;43.054;25.146;2023-07-29T04:12:28;95445.94;;;16.54;59.61
61408;BME280;47274;43.054;25.146;2023-07-29T04:14:54;95458.00;;;16.62;58.93
61408;BME280;47274;43.054;25.146;2023-07-29T04:17:20;95430.78;;;16.51;59.25
61408;BME280;47274;43.054;25.146;2023-07-29T04:19:46;95434.84;;;16.61;58.81
61408;BME280;47274;43.054;25.146;2023-07-29T04:22:12;95438.22;;;16.61;59.21
61408;BME280;47274;43.054;25.146;2023-07-29T04:24:40;95428.84;;;16.60;58.63
61408;BME280;47274;43.054;25.146;2023-07-29T04:27:06;95445.03;;;16.84;59.18
61408;BME280;47274;43.054;25.146;2023-07-29T04:29:35;95448.69;;;16.89;58.43
61408;BME280;47274;43.054;25.146;2023-07-29T04:32:04;95456.53;;;16.96;58.34
61408;BME280;47274;43.054;25.146;2023-07-29T04:34:30;95442.94;;;16.94;56.81
61408;BME280;47274;43.054;25.146;2023-07-29T04:36:59;95449.38;;;17.04;58.15
61408;BME280;47274;43.054;25.146;2023-07-29T04:39:25;95414.09;;;16.75;57.72
61408;BME280;47274;43.054;25.146;2023-07-29T04:41:51;95430.50;;;16.83;57.97
61408;BME280;47274;43.054;25.146;2023-07-29T04:44:17;95445.63;;;17.07;58.76
61408;BME280;47274;43.054;25.146;2023-07-29T04:46:46;95440.81;;;17.04;57.66
61408;BME280;47274;43.054;25.146;2023-07-29T04:49:12;95417.38;;;16.91;57.40
61408;BME280;47274;43.054;25.146;2023-07-29T04:51:38;95446.94;;;17.24;56.17
61408;BME280;47274;43.054;25.146;2023-07-29T04:54:04;95458.22;;;17.38;56.49
61408;BME280;47274;43.054;25.146;2023-07-29T04:56:30;95446.47;;;17.42;55.51
61408;BME280;47274;43.054;25.146;2023-07-29T04:58:55;95466.19;;;17.71;54.54
61408;BME280;47274;43.054;25.146;2023-07-29T05:01:21;95450.09;;;17.83;54.51
61408;BME280;47274;43.054;25.146;2023-07-29T05:03:48;95465.59;;;18.11;53.66
61408;BME280;47274;43.054;25.146;2023-07-29T05:06:23;95461.09;;;18.46;52.24
61408;BME280;47274;43.054;25.146;2023-07-29T05:08:51;95464.53;;;18.60;51.66
61408;BME280;47274;43.054;25.146;2023-07-29T05:11:17;95475.91;;;18.59;51.66
61408;BME280;47274;43.054;25.146;2023-07-29T05:13:43;95468.69;;;18.47;51.67
61408;BME280;47274;43.054;25.146;2023-07-29T05:16:11;95463.72;;;18.59;50.68
61408;BME280;47274;43.054;25.146;2023-07-29T05:18:36;95447.16;;;18.67;51.88
61408;BME280;47274;43.054;25.146;2023-07-29T05:21:05;95483.00;;;18.85;50.56
61408;BME280;47274;43.054;25.146;2023-07-29T05:23:31;95473.38;;;18.85;51.70
61408;BME280;47274;43.054;25.146;2023-07-29T05:26:00;95477.19;;;18.96;50.68
61408;BME280;47274;43.054;25.146;2023-07-29T05:28:27;95496.41;;;19.02;51.72
61408;BME280;47274;43.054;25.146;2023-07-29T05:30:53;95487.81;;;18.94;52.59
61408;BME280;47274;43.054;25.146;2023-07-29T05:33:19;95499.38;;;18.92;51.27
61408;BME280;47274;43.054;25.146;2023-07-29T05:35:47;95485.78;;;18.90;51.40
61408;BME280;47274;43.054;25.146;2023-07-29T05:38:13;95485.41;;;19.06;52.17
61408;BME280;47274;43.054;25.146;2023-07-29T05:40:39;95434.38;;;18.92;50.64
61408;BME280;47274;43.054;25.146;2023-07-29T05:43:15;95427.38;;;18.79;51.12
61408;BME280;47274;43.054;25.146;2023-07-29T05:45:46;95425.97;;;18.83;50.61
61408;BME280;47274;43.054;25.146;2023-07-29T05:48:22;95411.34;;;18.69;50.21
61408;BME280;47274;43.054;25.146;2023-07-29T05:50:50;95475.78;;;19.13;49.86
61408;BME280;47274;43.054;25.146;2023-07-29T05:53:16;95510.00;;;19.50;50.44
61408;BME280;47274;43.054;25.146;2023-07-29T05:55:42;95492.16;;;19.60;50.32
61408;BME280;47274;43.054;25.146;2023-07-29T05:58:08;95492.34;;;19.79;50.16
61408;BME280;47274;43.054;25.146;2023-07-29T06:00:35;95474.53;;;19.62;52.88
61408;BME280;47274;43.054;25.146;2023-07-29T06:03:04;95493.66;;;20.15;49.73
61408;BME280;47274;43.054;25.146;2023-07-29T06:05:30;95500.91;;;19.93;50.53
61408;BME280;47274;43.054;25.146;2023-07-29T06:07:56;95480.91;;;19.93;52.49
61408;BME280;47274;43.054;25.146;2023-07-29T06:10:25;95482.03;;;20.10;50.82
61408;BME280;47274;43.054;25.146;2023-07-29T06:12:51;95481.94;;;20.30;51.35
61408;BME280;47274;43.054;25.146;2023-07-29T06:15:19;95487.63;;;20.21;52.14
61408;BME280;47274;43.054;25.146;2023-07-29T06:17:48;95485.19;;;20.26;52.69
61408;BME280;47274;43.054;25.146;2023-07-29T06:20:14;95479.00;;;20.65;50.77
61408;BME280;47274;43.054;25.146;2023-07-29T06:22:41;95460.03;;;20.83;49.62
61408;BME280;47274;43.054;25.146;2023-07-29T06:25:07;95475.47;;;21.10;48.80
61408;BME280;47274;43.054;25.146;2023-07-29T06:27:33;95460.63;;;20.78;49.77
61408;BME280;47274;43.054;25.146;2023-07-29T06:29:58;95483.72;;;21.06;48.66
61408;BME280;47274;43.054;25.146;2023-07-29T06:32:24;95475.03;;;21.13;46.49
61408;BME280;47274;43.054;25.146;2023-07-29T06:34:50;95479.41;;;21.19;47.53
61408;BME280;47274;43.054;25.146;2023-07-29T06:37:17;95481.16;;;21.00;48.17
61408;BME280;47274;43.054;25.146;2023-07-29T06:39:43;95469.00;;;21.12;45.98
61408;BME280;47274;43.054;25.146;2023-07-29T06:42:09;95481.13;;;21.06;45.62
61408;BME280;47274;43.054;25.146;2023-07-29T06:44:34;95490.84;;;21.68;45.29
61408;BME280;47274;43.054;25.146;2023-07-29T06:47:00;95474.34;;;21.67;44.55
61408;BME280;47274;43.054;25.146;2023-07-29T06:49:26;95464.59;;;21.99;44.57
61408;BME280;47274;43.054;25.146;2023-07-29T06:51:52;95482.88;;;21.99;45.31
61408;BME280;47274;43.054;25.146;2023-07-29T06:54:17;95475.31;;;22.28;44.99
61408;BME280;47274;43.054;25.146;2023-07-29T06:56:43;95457.88;;;22.40;43.71
61408;BME280;47274;43.054;25.146;2023-07-29T06:59:09;95487.03;;;22.56;42.67
61408;BME280;47274;43.054;25.146;2023-07-29T07:01:35;95472.00;;;22.81;42.68
61408;BME280;47274;43.054;25.146;2023-07-29T07:04:03;95467.53;;;22.40;42.14
61408;BME280;47274;43.054;25.146;2023-07-29T07:06:29;95473.91;;;22.74;43.47
61408;BME280;47274;43.054;25.146;2023-07-29T07:08:55;95479.47;;;23.20;43.23
61408;BME280;47274;43.054;25.146;2023-07-29T07:11:20;95451.38;;;23.15;42.49
61408;BME280;47274;43.054;25.146;2023-07-29T07:13:49;95498.63;;;23.67;42.42
61408;BME280;47274;43.054;25.146;2023-07-29T07:16:15;95486.75;;;23.41;40.65
61408;BME280;47274;43.054;25.146;2023-07-29T07:18:41;95483.69;;;22.90;40.96
61408;BME280;47274;43.054;25.146;2023-07-29T07:21:07;95479.56;;;23.13;42.29
61408;BME280;47274;43.054;25.146;2023-07-29T07:23:33;95495.00;;;23.68;41.23
61408;BME280;47274;43.054;25.146;2023-07-29T07:25:58;95479.81;;;23.94;39.13
61408;BME280;47274;43.054;25.146;2023-07-29T07:28:24;95494.97;;;24.44;38.19
61408;BME280;47274;43.054;25.146;2023-07-29T07:30:50;95487.06;;;24.55;39.19
61408;BME280;47274;43.054;25.146;2023-07-29T07:33:19;95474.56;;;24.46;39.38
61408;BME280;47274;43.054;25.146;2023-07-29T07:35:44;95498.59;;;24.83;38.51
61408;BME280;47274;43.054;25.146;2023-07-29T07:38:10;95479.50;;;24.88;37.75
61408;BME280;47274;43.054;25.146;2023-07-29T07:40:36;95489.25;;;25.38;37.35
61408;BME280;47274;43.054;25.146;2023-07-29T07:43:02;95485.41;;;25.45;36.04
61408;BME280;47274;43.054;25.146;2023-07-29T07:45:28;95489.16;;;25.33;36.06
61408;BME280;47274;43.054;25.146;2023-07-29T07:47:53;95495.50;;;25.53;35.47
61408;BME280;47274;43.054;25.146;2023-07-29T07:50:20;95474.56;;;25.08;36.13
61408;BME280;47274;43.054;25.146;2023-07-29T07:52:48;95479.53;;;25.77;36.27
61408;BME280;47274;43.054;25.146;2023-07-29T07:55:14;95488.34;;;25.66;35.31
61408;BME280;47274;43.054;25.146;2023-07-29T07:57:40;95488.75;;;25.58;34.14
61408;BME280;47274;43.054;25.146;2023-07-29T08:00:07;95498.25;;;25.97;35.49
61408;BME280;47274;43.054;25.146;2023-07-29T08:02:38;95502.19;;;26.17;34.48
61408;BME280;47274;43.054;25.146;2023-07-29T08:05:06;95492.50;;;26.00;35.01
61408;BME280;47274;43.054;25.146;2023-07-29T08:07:35;95474.34;;;25.99;35.43
61408;BME280;47274;43.054;25.146;2023-07-29T08:10:03;95477.81;;;26.05;35.54
61408;BME280;47274;43.054;25.146;2023-07-29T08:12:29;95485.97;;;26.47;35.65
61408;BME280;47274;43.054;25.146;2023-07-29T08:14:55;95482.75;;;26.45;35.67
61408;BME280;47274;43.054;25.146;2023-07-29T08:17:21;95481.25;;;26.27;35.73
61408;BME280;47274;43.054;25.146;2023-07-29T08:19:47;95475.94;;;26.00;35.02
61408;BME280;47274;43.054;25.146;2023-07-29T08:22:12;95477.13;;;26.58;35.87
61408;BME280;47274;43.054;25.146;2023-07-29T08:24:38;95469.41;;;27.06;33.94
61408;BME280;47274;43.054;25.146;2023-07-29T08:27:04;95469.03;;;26.65;34.97
61408;BME280;47274;43.054;25.146;2023-07-29T08:29:30;95458.28;;;27.31;34.71
61408;BME280;47274;43.054;25.146;2023-07-29T08:31:56;95480.09;;;28.06;32.72
61408;BME280;47274;43.054;25.146;2023-07-29T08:34:24;95457.91;;;27.54;34.02
61408;BME280;47274;43.054;25.146;2023-07-29T08:36:53;95481.91;;;27.53;33.67
61408;BME280;47274;43.054;25.146;2023-07-29T08:39:28;95473.53;;;28.14;32.42
61408;BME280;47274;43.054;25.146;2023-07-29T08:42:00;95455.75;;;28.62;32.28
61408;BME280;47274;43.054;25.146;2023-07-29T08:44:41;95465.56;;;28.97;31.79
61408;BME280;47274;43.054;25.146;2023-07-29T08:47:11;95441.28;;;29.31;31.88
61408;BME280;47274;43.054;25.146;2023-07-29T08:49:41;95474.28;;;29.64;32.66
61408;BME280;47274;43.054;25.146;2023-07-29T08:52:07;95445.94;;;29.80;32.20
61408;BME280;47274;43.054;25.146;2023-07-29T08:54:33;95452.69;;;30.11;31.98
61408;BME280;47274;43.054;25.146;2023-07-29T08:56:59;95435.78;;;30.07;31.99
61408;BME280;47274;43.054;25.146;2023-07-29T08:59:26;95472.78;;;30.28;32.05
61408;BME280;47274;43.054;25.146;2023-07-29T09:01:55;95428.84;;;30.27;32.10
61408;BME280;47274;43.054;25.146;2023-07-29T09:04:22;95466.31;;;30.93;31.72
61408;BME280;47274;43.054;25.146;2023-07-29T09:06:51;95466.16;;;31.14;30.81
61408;BME280;47274;43.054;25.146;2023-07-29T09:09:17;95437.13;;;30.99;31.28
61408;BME280;47274;43.054;25.146;2023-07-29T09:11:43;95451.94;;;31.05;31.26
61408;BME280;47274;43.054;25.146;2023-07-29T09:14:09;95465.50;;;31.27;30.15
61408;BME280;47274;43.054;25.146;2023-07-29T09:16:35;95440.44;;;31.14;31.48
61408;BME280;47274;43.054;25.146;2023-07-29T09:19:02;95461.41;;;31.11;29.90
61408;BME280;47274;43.054;25.146;2023-07-29T09:21:31;95463.63;;;30.99;29.69
61408;BME280;47274;43.054;25.146;2023-07-29T09:24:02;95442.59;;;31.07;30.75
61408;BME280;47274;43.054;25.146;2023-07-29T09:26:28;95447.13;;;31.07;30.29
61408;BME280;47274;43.054;25.146;2023-07-29T09:28:56;95458.88;;;31.25;30.76
61408;BME280;47274;43.054;25.146;2023-07-29T09:31:24;95458.72;;;31.45;30.08
61408;BME280;47274;43.054;25.146;2023-07-29T09:34:04;95442.81;;;31.16;28.85
61408;BME280;47274;43.054;25.146;2023-07-29T09:36:32;95414.81;;;31.05;30.17
61408;BME280;47274;43.054;25.146;2023-07-29T09:38:58;95440.06;;;31.26;29.96
61408;BME280;47274;43.054;25.146;2023-07-29T09:41:28;95452.53;;;31.55;30.10
61408;BME280;47274;43.054;25.146;2023-07-29T09:44:02;95446.13;;;31.85;29.59
61408;BME280;47274;43.054;25.146;2023-07-29T09:46:33;95461.03;;;32.29;28.17
61408;BME280;47274;43.054;25.146;2023-07-29T09:49:02;95450.50;;;32.43;27.67
61408;BME280;47274;43.054;25.146;2023-07-29T09:51:28;95427.22;;;31.68;29.43
61408;BME280;47274;43.054;25.146;2023-07-29T09:53:53;95437.63;;;31.35;27.75
61408;BME280;47274;43.054;25.146;2023-07-29T09:56:25;95438.38;;;30.17;28.85
61408;BME280;47274;43.054;25.146;2023-07-29T09:58:51;95393.28;;;30.38;29.40
61408;BME280;47274;43.054;25.146;2023-07-29T10:01:18;95421.09;;;31.14;28.34
61408;BME280;47274;43.054;25.146;2023-07-29T10:03:44;95436.59;;;31.60;28.94
61408;BME280;47274;43.054;25.146;2023-07-29T10:06:11;95458.28;;;32.15;29.18
61408;BME280;47274;43.054;25.146;2023-07-29T10:08:39;95381.59;;;31.42;28.82
61408;BME280;47274;43.054;25.146;2023-07-29T10:11:08;95389.97;;;31.54;28.19
61408;BME280;47274;43.054;25.146;2023-07-29T10:13:35;95368.75;;;31.54;28.11
61408;BME280;47274;43.054;25.146;2023-07-29T10:16:03;95371.28;;;31.88;28.80
61408;BME280;47274;43.054;25.146;2023-07-29T10:18:32;95422.53;;;32.26;27.99
61408;BME280;47274;43.054;25.146;2023-07-29T10:20:59;95407.56;;;31.69;27.14
61408;BME280;47274;43.054;25.146;2023-07-29T10:23:27;95432.38;;;32.07;28.43
61408;BME280;47274;43.054;25.146;2023-07-29T10:26:04;95419.69;;;32.61;26.92
61408;BME280;47274;43.054;25.146;2023-07-29T10:28:31;95414.84;;;32.82;28.14
61408;BME280;47274;43.054;25.146;2023-07-29T10:30:58;95438.19;;;32.85;28.39
61408;BME280;47274;43.054;25.146;2023-07-29T10:33:25;95390.25;;;32.76;28.79
61408;BME280;47274;43.054;25.146;2023-07-29T10:35:52;95432.56;;;33.24;27.67
61408;BME280;47274;43.054;25.146;2023-07-29T10:38:21;95438.31;;;33.12;27.82
61408;BME280;47274;43.054;25.146;2023-07-29T10:40:50;95416.84;;;33.09;27.25
61408;BME280;47274;43.054;25.146;2023-07-29T10:43:36;95413.13;;;33.10;26.47
61408;BME280;47274;43.054;25.146;2023-07-29T10:46:19;95414.34;;;32.98;27.61
61408;BME280;47274;43.054;25.146;2023-07-29T10:48:55;95425.22;;;33.16;26.62
61408;BME280;47274;43.054;25.146;2023-07-29T10:51:37;95416.69;;;33.33;26.67
61408;BME280;47274;43.054;25.146;2023-07-29T10:54:13;95422.25;;;32.85;27.28
61408;BME280;47274;43.054;25.146;2023-07-29T10:56:41;95416.75;;;33.00;27.95
61408;BME280;47274;43.054;25.146;2023-07-29T11:01:51;95411.13;;;33.01;26.59
61408;BME280;47274;43.054;25.146;2023-07-29T11:17:39;95391.06;;;33.23;26.81
61408;BME280;47274;43.054;25.146;2023-07-29T11:20:06;95406.72;;;33.11;27.27
61408;BME280;47274;43.054;25.146;2023-07-29T11:22:33;95408.59;;;33.10;27.01
61408;BME280;47274;43.054;25.146;2023-07-29T11:24:59;95404.22;;;33.00;26.23
61408;BME280;47274;43.054;25.146;2023-07-29T11:27:24;95387.91;;;32.88;26.34
61408;BME280;47274;43.054;25.146;2023-07-29T11:29:50;95390.88;;;32.87;26.27
61408;BME280;47274;43.054;25.146;2023-07-29T11:32:16;95363.47;;;32.72;26.31
61408;BME280;47274;43.054;25.146;2023-07-29T11:34:44;95376.81;;;32.67;26.46
61408;BME280;47274;43.054;25.146;2023-07-29T11:37:11;95385.31;;;32.69;26.07
61408;BME280;47274;43.054;25.146;2023-07-29T11:39:41;95387.63;;;32.90;26.04
61408;BME280;47274;43.054;25.146;2023-07-29T11:42:10;95372.72;;;33.08;26.86
61408;BME280;47274;43.054;25.146;2023-07-29T11:44:36;95375.00;;;32.82;26.89
61408;BME280;47274;43.054;25.146;2023-07-29T11:47:09;95371.69;;;32.90;26.43
61408;BME280;47274;43.054;25.146;2023-07-29T11:49:35;95383.00;;;33.14;27.40
61408;BME280;47274;43.054;25.146;2023-07-29T11:52:09;95392.91;;;33.09;26.15
61408;BME280;47274;43.054;25.146;2023-07-29T11:54:36;95372.22;;;32.73;26.33
61408;BME280;47274;43.054;25.146;2023-07-29T11:57:12;95368.41;;;32.79;27.15
61408;BME280;47274;43.054;25.146;2023-07-29T11:59:39;95368.81;;;32.86;27.72
61408;BME280;47274;43.054;25.146;2023-07-29T12:02:19;95356.59;;;33.04;25.52
61408;BME280;47274;43.054;25.146;2023-07-29T12:04:46;95383.53;;;32.97;24.83
61408;BME280;47274;43.054;25.146;2023-07-29T12:07:14;95362.03;;;32.61;27.45
61408;BME280;47274;43.054;25.146;2023-07-29T12:09:41;95369.69;;;32.82;27.20
61408;BME280;47274;43.054;25.146;2023-07-29T12:12:08;95364.25;;;33.06;26.60
61408;BME280;47274;43.054;25.146;2023-07-29T12:14:37;95360.34;;;33.17;26.50
61408;BME280;47274;43.054;25.146;2023-07-29T12:17:04;95349.97;;;32.69;25.67
61408;BME280;47274;43.054;25.146;2023-07-29T12:19:38;95363.06;;;32.98;26.61
61408;BME280;47274;43.054;25.146;2023-07-29T12:22:07;95366.94;;;33.19;26.21
61408;BME280;47274;43.054;25.146;2023-07-29T12:24:35;95350.88;;;32.78;25.58
61408;BME280;47274;43.054;25.146;2023-07-29T12:27:02;95347.06;;;32.84;27.29
61408;BME280;47274;43.054;25.146;2023-07-29T12:29:28;95351.25;;;33.04;25.01
61408;BME280;47274;43.054;25.146;2023-07-29T12:32:02;95368.19;;;33.08;25.15
61408;BME280;47274;43.054;25.146;2023-07-29T12:34:29;95366.84;;;33.24;25.29
61408;BME280;47274;43.054;25.146;2023-07-29T12:36:56;95360.72;;;33.10;25.29
61408;BME280;47274;43.054;25.146;2023-07-29T12:39:25;95355.31;;;33.15;24.51
61408;BME280;47274;43.054;25.146;2023-07-29T12:41:55;95348.09;;;32.69;25.04
61408;BME280;47274;43.054;25.146;2023-07-29T12:44:26;95364.41;;;32.63;25.92
61408;BME280;47274;43.054;25.146;2023-07-29T12:46:52;95367.84;;;32.63;25.60
61408;BME280;47274;43.054;25.146;2023-07-29T12:49:18;95361.44;;;32.83;26.89
61408;BME280;47274;43.054;25.146;2023-07-29T12:51:44;95356.88;;;32.70;26.51
61408;BME280;47274;43.054;25.146;2023-07-29T12:54:10;95357.22;;;32.06;27.39
61408;BME280;47274;43.054;25.146;2023-07-29T12:56:36;95353.31;;;32.04;26.25
61408;BME280;47274;43.054;25.146;2023-07-29T12:59:02;95362.41;;;32.36;26.20
61408;BME280;47274;43.054;25.146;2023-07-29T13:01:29;95355.25;;;32.55;26.49
61408;BME280;47274;43.054;25.146;2023-07-29T13:03:55;95360.09;;;32.67;26.41
61408;BME280;47274;43.054;25.146;2023-07-29T13:06:22;95350.56;;;32.66;26.74
61408;BME280;47274;43.054;25.146;2023-07-29T13:08:48;95345.31;;;32.93;25.63
61408;BME280;47274;43.054;25.146;2023-07-29T13:11:15;95349.28;;;32.96;26.23
61408;BME280;47274;43.054;25.146;2023-07-29T13:13:41;95332.88;;;32.89;25.86